Spaceon02064 — ASD — position and weather

sailwx.info

Track history (hours):
 
Tides and Currents Weather Stations Pressure Air Temp Water Temp Dewpoint Dewpoint Depression Visibility Wind Speed Wind Dir Waves Ship Positions

Spaceon02064

Last reported at 2018-Apr-23 01:00 UTC. Time now 2018-Apr-23 07:55 UTC.
Position N 31°01' E 122°08'.

Length 6 m.

Type: Ship. MMSI: 200902064.

Date/timePositionNaut miles runAvg speedWind from/ knotsBaromVisibWave heightAir tempDewpointWater temp
2018-Apr-23 01:00N 31°01' E 122°08'2 4.8
2018-Apr-23 00:29N 30°59' E 122°10'7 6.6
2018-Apr-22 23:29N 30°53' E 122°10'13 7.9
2018-Apr-22 21:52N 30°44' E 121°59'3 6.9
2018-Apr-22 21:28N 30°42' E 121°57'3 7.0
2018-Apr-22 21:00N 30°39' E 121°54'63 4.6
2018-Apr-22 07:19N 31°35' E 121°19'  
2018-Apr-19 05:57N 31°37' E 121°16'6523.8
2018-Apr-19 03:13N 30°42' E 121°56'2 8.5
2018-Apr-19 02:57N 30°43' E 121°58'4 9.5
2018-Apr-19 02:30N 30°45' E 122°03'5 8.2
2018-Apr-19 01:54N 30°49' E 122°07'3 7.8
2018-Apr-19 01:29N 30°51' E 122°09'3 7.2
2018-Apr-19 01:00N 30°55' E 122°10'4 8.2
2018-Apr-19 00:30N 30°59' E 122°10'4 6.5
2018-Apr-18 23:51N 31°01' E 122°06'11 9.2
2018-Apr-18 22:39N 31°07' E 121°55'33 7.4
2018-Apr-18 18:12N 31°29' E 121°26'1 5.2
2018-Apr-18 17:55N 31°29' E 121°24'2 4.6
2018-Apr-18 17:30N 31°30' E 121°22'4 5.0
2018-Apr-18 16:45N 31°33' E 121°19'1 5.6
2018-Apr-18 16:30N 31°34' E 121°18'3 6.8
2018-Apr-18 16:00N 31°37' E 121°16'5 8.5
2018-Apr-18 15:28N 31°40' E 121°12'5 9.6
2018-Apr-18 14:59N 31°43' E 121°07'39 7.1
2018-Apr-18 09:24N 32°02' E 120°27'42 1.1
2018-Apr-16 18:28N 31°42' E 121°10'511.4
2018-Apr-16 18:00N 31°38' E 121°15'511.2
2018-Apr-16 17:30N 31°34' E 121°19'611.1
2018-Apr-16 17:00N 31°31' E 121°24'47 2.4
2018-Apr-15 21:06N 31°02' E 122°07'1 4.1
2018-Apr-15 20:58N 31°01' E 122°07'3 4.1
2018-Apr-15 20:19N 30°60' E 122°10'2 5.0
2018-Apr-15 20:00N 30°58' E 122°10'3 5.6
2018-Apr-15 19:30N 30°55' E 122°10'3 6.4
2018-Apr-15 18:58N 30°52' E 122°10'11 7.6
2018-Apr-15 17:31N 30°44' E 122°01'1 8.4
2018-Apr-15 17:26N 30°44' E 122°00'  
Track history (hours):
 
Tides and Currents Weather Stations Pressure Air Temp Water Temp Dewpoint Dewpoint Depression Visibility Wind Speed Wind Dir Waves Ship Positions

Spaceon02064

Last reported at 2018-Apr-23 01:00 UTC. Time now 2018-Apr-23 07:55 UTC.
Position N 31°01' E 122°08'.

Length 6 m.

Type: Ship. MMSI: 200902064.

Date/timePositionNaut miles runAvg speedWind from/ knotsBaromVisibWave heightAir tempDewpointWater temp
2018-Apr-23 01:00N 31°01' E 122°08'2 4.8
2018-Apr-23 00:29N 30°59' E 122°10'7 6.6
2018-Apr-22 23:29N 30°53' E 122°10'13 7.9
2018-Apr-22 21:52N 30°44' E 121°59'3 6.9
2018-Apr-22 21:28N 30°42' E 121°57'3 7.0
2018-Apr-22 21:00N 30°39' E 121°54'63 4.6
2018-Apr-22 07:19N 31°35' E 121°19'  
2018-Apr-19 05:57N 31°37' E 121°16'6523.8
2018-Apr-19 03:13N 30°42' E 121°56'2 8.5
2018-Apr-19 02:57N 30°43' E 121°58'4 9.5
2018-Apr-19 02:30N 30°45' E 122°03'5 8.2
2018-Apr-19 01:54N 30°49' E 122°07'3 7.8
2018-Apr-19 01:29N 30°51' E 122°09'3 7.2
2018-Apr-19 01:00N 30°55' E 122°10'4 8.2
2018-Apr-19 00:30N 30°59' E 122°10'4 6.5
2018-Apr-18 23:51N 31°01' E 122°06'11 9.2
2018-Apr-18 22:39N 31°07' E 121°55'33 7.4
2018-Apr-18 18:12N 31°29' E 121°26'1 5.2
2018-Apr-18 17:55N 31°29' E 121°24'2 4.6
2018-Apr-18 17:30N 31°30' E 121°22'4 5.0
2018-Apr-18 16:45N 31°33' E 121°19'1 5.6
2018-Apr-18 16:30N 31°34' E 121°18'3 6.8
2018-Apr-18 16:00N 31°37' E 121°16'5 8.5
2018-Apr-18 15:28N 31°40' E 121°12'5 9.6
2018-Apr-18 14:59N 31°43' E 121°07'39 7.1
2018-Apr-18 09:24N 32°02' E 120°27'42 1.1
2018-Apr-16 18:28N 31°42' E 121°10'511.4
2018-Apr-16 18:00N 31°38' E 121°15'511.2
2018-Apr-16 17:30N 31°34' E 121°19'611.1
2018-Apr-16 17:00N 31°31' E 121°24'47 2.4
2018-Apr-15 21:06N 31°02' E 122°07'1 4.1
2018-Apr-15 20:58N 31°01' E 122°07'3 4.1
2018-Apr-15 20:19N 30°60' E 122°10'2 5.0
2018-Apr-15 20:00N 30°58' E 122°10'3 5.6
2018-Apr-15 19:30N 30°55' E 122°10'3 6.4
2018-Apr-15 18:58N 30°52' E 122°10'11 7.6
2018-Apr-15 17:31N 30°44' E 122°01'1 8.4
2018-Apr-15 17:26N 30°44' E 122°00'  

Dump ship's entire track history